Time;durP1;ratioP1;P1;durP2;ratioP2;P2;SDS_P1;SDS_P2;PMS_P1;PMS_P2;Temp;Humidity;BMP_temperature;BMP_pressure;BME280_temperature;BME280_humidity;BME280_pressure;Samples;Min_cycle;Max_cycle;Signal;HPM_P1;HPM_P2
2024/04/04 00:02:59;;;;;;;8.20;6.70;;;2.00;97.90;;;;;;4686048;29;20560;-85
2024/04/04 00:23:17;;;;;;;11.10;7.87;;;1.20;99.90;;;;;;4550334;30;20703;-84
2024/04/04 00:59:02;;;;;;;11.10;8.90;;;1.20;99.90;;;;;;4739399;29;20210;-86
2024/04/04 01:03:22;;;;;;;9.67;7.27;;;1.30;99.90;;;;;;4768581;29;20561;-85
2024/04/04 01:24:15;;;;;;;9.67;7.53;;;1.00;99.90;;;;;;4733243;29;20206;-86
2024/04/04 01:49:14;;;;;;;12.37;7.63;;;0.90;99.90;;;;;;4618789;30;20661;-86
2024/04/04 02:09:58;;;;;;;13.40;8.13;;;1.00;99.90;;;;;;4632807;30;20542;-85
2024/04/04 02:34:43;;;;;;;13.90;8.13;;;1.20;99.90;;;;;;4631391;30;20760;-86
2024/04/04 03:35:58;;;;;;;13.37;8.73;;;1.20;99.90;;;;;;4766816;29;20529;-86
2024/04/04 04:00:36;;;;;;;15.57;8.40;;;1.00;99.90;;;;;;4666982;29;20578;-87
2024/04/04 04:46:56;;;;;;;14.57;9.37;;;1.30;99.90;;;;;;4593977;30;20211;-84
2024/04/04 05:06:53;;;;;;;14.43;8.93;;;2.40;99.90;;;;;;4642277;30;20823;-85
2024/04/04 05:32:32;;;;;;;10.27;7.53;;;3.20;91.80;;;;;;4673619;29;20367;-84
2024/04/04 06:02:25;;;;;;;15.07;9.63;;;4.00;90.00;;;;;;4576280;30;20602;-85
2024/04/04 06:23:02;;;;;;;17.10;11.83;;;4.00;91.40;;;;;;4627984;29;20249;-87
2024/04/04 06:48:17;;;;;;;11.80;8.63;;;5.10;86.80;;;;;;4545783;30;20264;-84
2024/04/04 07:39:09;;;;;;;8.13;7.27;;;6.50;84.30;;;;;;4608434;30;20564;-85
2024/04/04 08:04:44;;;;;;;8.57;7.77;;;6.70;84.50;;;;;;4642913;30;21206;-83
2024/04/04 08:34:34;;;;;;;10.90;9.60;;;7.50;84.40;;;;;;4612603;30;20332;-86
2024/04/04 08:55:18;;;;;;;12.77;11.47;;;7.70;88.60;;;;;;4653091;30;20413;-86
2024/04/04 09:20:24;;;;;;;15.97;11.43;;;8.30;89.60;;;;;;4639902;30;20217;-85
2024/04/04 09:46:12;;;;;;;14.83;11.70;;;9.50;88.60;;;;;;4624515;30;20934;-84
2024/04/04 10:21:10;;;;;;;12.60;11.10;;;10.90;85.70;;;;;;4552724;30;20513;-84
2024/04/04 10:46:49;;;;;;;15.33;11.20;;;11.60;85.30;;;;;;4558145;30;20400;-82
2024/04/04 11:17:15;;;;;;;13.90;10.50;;;12.90;86.00;;;;;;4705196;29;20212;-82
2024/04/04 11:37:48;;;;;;;11.27;10.10;;;12.80;85.40;;;;;;4605924;30;20328;-85
2024/04/04 12:03:23;;;;;;;12.30;10.40;;;13.60;85.10;;;;;;4655556;30;20583;-83
2024/04/04 12:07:35;;;;;;;10.20;8.60;;;13.70;85.10;;;;;;4646480;30;20413;-85
2024/04/04 12:27:52;;;;;;;9.60;8.67;;;14.50;83.40;;;;;;4559338;30;20641;-85
2024/04/04 12:53:42;;;;;;;10.57;9.30;;;14.60;83.90;;;;;;4584395;30;20701;-85
2024/04/04 13:14:11;;;;;;;9.93;9.03;;;15.00;83.60;;;;;;4616794;30;20368;-85
2024/04/04 13:59:50;;;;;;;9.17;8.27;;;15.70;83.90;;;;;;4588587;30;20199;-83
2024/04/04 15:10:31;;;;;;;7.80;6.33;;;15.60;84.50;;;;;;4732234;29;20557;-85
2024/04/04 15:26:04;;;;;;;9.07;6.83;;;15.00;84.60;;;;;;4764699;29;20453;-86
2024/04/04 15:51:14;;;;;;;8.90;7.60;;;14.30;86.00;;;;;;4692103;30;20231;-87
2024/04/04 16:16:36;;;;;;;7.90;7.00;;;14.90;86.10;;;;;;4703327;30;21534;-85
2024/04/04 16:37:11;;;;;;;8.57;7.73;;;14.30;86.80;;;;;;4655276;30;20335;-86
2024/04/04 17:17:19;;;;;;;13.70;9.90;;;12.70;90.50;;;;;;4548605;30;20510;-86
2024/04/04 17:48:09;;;;;;;14.00;11.60;;;12.00;93.70;;;;;;4809136;29;20236;-86
2024/04/04 18:13:11;;;;;;;15.83;12.60;;;11.90;94.40;;;;;;4804552;29;20296;-86
2024/04/04 18:38:18;;;;;;;21.73;13.37;;;11.80;95.30;;;;;;4790962;29;20569;-88
2024/04/04 19:09:11;;;;;;;16.93;13.50;;;11.90;96.10;;;;;;4861055;29;20901;-85
2024/04/04 19:34:37;;;;;;;18.20;12.77;;;11.70;96.80;;;;;;4871933;29;20277;-86
2024/04/04 20:15:12;;;;;;;19.27;14.20;;;11.60;99.10;;;;;;4857312;29;20293;-85
2024/04/04 20:24:51;;;;;;;20.43;15.50;;;11.60;99.90;;;;;;5892217;23;20198;-85
2024/04/04 20:50:05;;;;;;;26.80;16.47;;;11.20;99.90;;;;;;4858040;29;20248;-85
2024/04/04 22:11:32;;;;;;;15.10;12.67;;;11.10;99.90;;;;;;4899425;28;20416;-86
2024/04/04 22:36:31;;;;;;;13.47;11.57;;;10.90;99.90;;;;;;4864637;29;20213;-85
2024/04/04 22:56:55;;;;;;;13.30;11.43;;;11.00;99.90;;;;;;4773354;29;20735;-83
2024/04/04 23:22:31;;;;;;;14.17;11.33;;;10.90;99.90;;;;;;4701874;29;20258;-85
2024/04/04 23:52:54;;;;;;;12.83;11.17;;;10.70;99.90;;;;;;4527733;30;20223;-86
